Terminal Aerodrome Forecast
Issued by NWS Pendleton, OR

Home | Current Version | Previous Version | Text Only | Print | Product List | Glossary On
Versions: 1 2 3 4 5 6 7 8 9 10 11 12 13 14
453
FTUS46 KPDT 221739
TAFPDT
TAF
KPDT 221739Z 2218/2318 30006KT P6SM SCT017 SCT200
     FM221900 30007KT P6SM FEW100 SCT200
     FM230200 14006KT P6SM BKN100
     FM231500 VRB04KT P6SM SCT120 SCT200=

USA.gov is the U.S. government's official web portal to all federal, state and local government web resources and services.